Terminal Aerodrome Forecast
Issued by NWS

Home | Current Version | Previous Version | Text Only | Print | Product List | Glossary On
Versions: 1 2 3 4 5 6 7 8 9 10 11 12 13 14 15 16 17 18 19 20 21 22 23
000
FTUS46 KOTX 251122
TAFSFF
TAF
KSFF 251122Z 2512/2612 VRB03KT P6SM SCT070 BKN120 BKN200
     FM251300 19005KT P6SM SCT040 BKN060 OVC100
     FM251700 22007KT P6SM -SHRA SCT030 BKN040 OVC100
     FM260200 33003KT P6SM SCT050 BKN100 OVC120=

USA.gov is the U.S. government's official web portal to all federal, state and local government web resources and services.